Time;durP1;ratioP1;P1;durP2;ratioP2;P2;SDS_P1;SDS_P2;PMS_P1;PMS_P2;Temp;Humidity;BMP_temperature;BMP_pressure;BME280_temperature;BME280_humidity;BME280_pressure;Samples;Min_cycle;Max_cycle;Signal;HPM_P1;HPM_P2
2023/12/19 00:01:05;;;;;;;;;;;;;;;11.94;43.61;98982.47;5088892;28;19958;-66
2023/12/19 00:03:31;;;;;;;;;;;;;;;11.98;43.48;99000.63;5097403;28;20364;-66
2023/12/19 00:05:56;;;;;;;;;;;;;;;11.98;43.64;98997.94;5112165;28;19930;-68
2023/12/19 00:08:21;;;;;;;;;;;;;;;11.98;43.30;99008.69;5100800;28;19924;-68
2023/12/19 00:10:47;;;;;;;;;;;;;;;11.97;43.57;98993.59;5100385;28;19918;-67
2023/12/19 00:13:12;;;;;;;;;;;;;;;12.03;43.22;98991.81;5096993;28;19928;-68
2023/12/19 00:15:38;;;;;;;;;;;;;;;11.98;43.36;98986.34;5103283;28;19919;-68
2023/12/19 00:18:03;;;;;;;;;;;;;;;11.96;43.71;98985.75;5095896;28;19916;-67
2023/12/19 00:20:31;;;;;;;;;;;;;;;11.92;43.69;98998.06;5108272;28;19937;-67
2023/12/19 00:22:57;;;;;;;;;;;;;;;11.76;43.78;99002.28;5096852;28;19920;-66
2023/12/19 00:25:26;;;;;;;;;;;;;;;11.76;44.07;99013.84;5097693;28;20272;-69
2023/12/19 00:27:51;;;;;;;;;;;;;;;11.79;43.96;99009.84;5091224;28;20526;-69
2023/12/19 00:30:17;;;;;;;;;;;;;;;11.84;44.00;99014.53;5102070;28;19912;-70
2023/12/19 00:32:43;;;;;;;;;;;;;;;11.74;44.42;99034.78;5107448;28;20468;-70
2023/12/19 00:35:11;;;;;;;;;;;;;;;11.76;44.44;99024.63;5094999;28;20636;-70
2023/12/19 00:37:36;;;;;;;;;;;;;;;11.82;44.21;99026.34;5092321;28;19920;-70
2023/12/19 00:40:03;;;;;;;;;;;;;;;11.90;43.90;99040.50;5106594;28;19923;-70
2023/12/19 00:42:28;;;;;;;;;;;;;;;11.92;44.26;99044.63;5116069;28;19911;-70
2023/12/19 00:44:54;;;;;;;;;;;;;;;11.90;44.65;99052.09;5114206;28;19923;-70
2023/12/19 00:47:19;;;;;;;;;;;;;;;11.94;44.22;99058.66;5116061;28;19981;-70
2023/12/19 00:49:44;;;;;;;;;;;;;;;12.00;44.16;99070.34;5098595;28;19930;-66
2023/12/19 00:52:10;;;;;;;;;;;;;;;11.96;44.44;99075.38;5097617;28;19966;-66
2023/12/19 00:54:35;;;;;;;;;;;;;;;12.00;44.09;99084.59;5094132;28;20178;-66
2023/12/19 00:57:00;;;;;;;;;;;;;;;11.99;44.10;99101.78;5095145;28;20010;-71
2023/12/19 00:59:26;;;;;;;;;;;;;;;11.92;44.33;99095.72;5094696;28;19920;-71
2023/12/19 01:01:51;;;;;;;;;;;;;;;11.91;44.68;99106.72;5071378;28;19962;-71
2023/12/19 01:04:17;;;;;;;;;;;;;;;11.95;44.68;99107.88;5091310;28;19924;-71
2023/12/19 01:06:43;;;;;;;;;;;;;;;11.85;44.45;99105.78;5095290;28;19920;-70
2023/12/19 01:09:09;;;;;;;;;;;;;;;11.86;44.56;99093.13;5115596;28;20006;-69
2023/12/19 01:11:35;;;;;;;;;;;;;;;11.87;44.54;99103.66;5115848;28;19915;-69
2023/12/19 01:14:00;;;;;;;;;;;;;;;11.93;44.46;99110.81;5094053;28;19919;-70
2023/12/19 01:16:26;;;;;;;;;;;;;;;11.93;44.46;99115.38;5095926;28;19920;-70
2023/12/19 01:18:51;;;;;;;;;;;;;;;11.97;44.14;99119.22;5077765;28;19912;-70
2023/12/19 01:21:16;;;;;;;;;;;;;;;11.99;43.76;99127.88;5087816;28;20280;-70
2023/12/19 01:23:42;;;;;;;;;;;;;;;11.95;43.66;99126.72;5108635;28;20041;-70
2023/12/19 01:26:08;;;;;;;;;;;;;;;11.90;43.93;99124.72;5103961;28;19916;-70
2023/12/19 01:28:34;;;;;;;;;;;;;;;11.86;43.63;99150.44;5095805;28;19935;-70
2023/12/19 01:30:59;;;;;;;;;;;;;;;11.84;44.00;99165.19;5095859;28;19919;-70
2023/12/19 01:33:24;;;;;;;;;;;;;;;11.85;43.63;99172.19;5095603;28;19912;-70
2023/12/19 01:35:50;;;;;;;;;;;;;;;11.83;43.95;99183.19;5095275;28;19919;-70
2023/12/19 01:38:16;;;;;;;;;;;;;;;11.76;43.98;99185.19;5095222;28;19912;-69
2023/12/19 01:40:43;;;;;;;;;;;;;;;11.65;43.82;99178.72;5095354;28;19916;-69
2023/12/19 01:43:34;;;;;;;;;;;;;;;11.52;43.81;99178.94;5095245;28;20365;-70
2023/12/19 01:46:00;;;;;;;;;;;;;;;11.41;44.04;99186.75;5091135;28;20283;-69
2023/12/19 01:48:26;;;;;;;;;;;;;;;11.23;43.51;99176.88;5095061;28;19995;-70
2023/12/19 01:50:51;;;;;;;;;;;;;;;10.98;44.15;99187.81;5095059;28;19916;-69
2023/12/19 01:53:17;;;;;;;;;;;;;;;10.79;42.46;99183.50;5094855;28;20326;-70
2023/12/19 01:55:43;;;;;;;;;;;;;;;10.79;43.81;99172.75;5094664;28;19919;-69
2023/12/19 01:58:09;;;;;;;;;;;;;;;10.69;42.91;99162.56;5094873;28;19912;-69
2023/12/19 02:00:35;;;;;;;;;;;;;;;10.43;43.18;99180.63;5095094;28;19963;-69
2023/12/19 02:03:01;;;;;;;;;;;;;;;10.30;41.35;99174.56;5099908;28;19919;-69
2023/12/19 02:05:27;;;;;;;;;;;;;;;10.31;39.97;99174.38;5094916;28;20456;-69
2023/12/19 02:07:52;;;;;;;;;;;;;;;10.43;40.88;99171.75;5095083;28;19912;-69
2023/12/19 02:10:17;;;;;;;;;;;;;;;10.61;41.37;99166.38;5094790;28;20284;-69
2023/12/19 02:12:43;;;;;;;;;;;;;;;10.50;39.24;99180.56;5107339;28;19995;-69
2023/12/19 02:15:09;;;;;;;;;;;;;;;10.69;39.70;99162.56;5101307;28;20002;-69
2023/12/19 02:17:34;;;;;;;;;;;;;;;10.82;41.39;99173.13;5094564;28;19959;-69
2023/12/19 02:20:00;;;;;;;;;;;;;;;10.86;41.40;99173.50;5094456;28;19923;-69
2023/12/19 02:22:25;;;;;;;;;;;;;;;10.85;41.54;99166.50;5076327;28;19916;-69
2023/12/19 02:24:51;;;;;;;;;;;;;;;10.88;41.98;99166.03;5076152;28;19951;-68
2023/12/19 02:27:18;;;;;;;;;;;;;;;10.79;41.04;99160.16;5094224;28;19970;-69
2023/12/19 02:29:43;;;;;;;;;;;;;;;10.75;41.31;99158.97;5094656;28;19912;-68
2023/12/19 02:32:08;;;;;;;;;;;;;;;10.67;40.57;99171.91;5094359;28;19918;-68
2023/12/19 02:34:34;;;;;;;;;;;;;;;10.68;41.69;99192.31;5075321;28;20297;-68
2023/12/19 02:36:59;;;;;;;;;;;;;;;10.64;42.14;99213.44;5076163;28;19963;-69
2023/12/19 02:39:24;;;;;;;;;;;;;;;10.59;41.50;99214.13;5094028;28;20369;-69
2023/12/19 02:41:50;;;;;;;;;;;;;;;10.47;41.40;99191.75;5094024;28;19912;-69
2023/12/19 02:44:15;;;;;;;;;;;;;;;10.36;41.41;99187.94;5093790;28;19917;-69
2023/12/19 02:46:40;;;;;;;;;;;;;;;10.44;40.79;99198.38;5094683;28;19959;-69
2023/12/19 02:49:06;;;;;;;;;;;;;;;10.42;40.39;99197.78;5094137;28;19916;-69
2023/12/19 02:51:31;;;;;;;;;;;;;;;10.41;40.51;99185.41;5094481;28;19915;-68
2023/12/19 02:53:57;;;;;;;;;;;;;;;10.49;40.93;99197.69;5093393;28;20324;-68
2023/12/19 02:56:23;;;;;;;;;;;;;;;10.49;40.40;99199.56;5094378;28;20001;-68
2023/12/19 02:58:48;;;;;;;;;;;;;;;10.30;39.01;99196.03;5092318;28;19916;-69
2023/12/19 03:01:13;;;;;;;;;;;;;;;10.35;39.27;99215.00;5113787;28;19912;-69
2023/12/19 03:03:40;;;;;;;;;;;;;;;10.36;38.22;99216.63;5093785;28;20326;-69
2023/12/19 03:06:05;;;;;;;;;;;;;;;10.40;39.64;99207.94;5093675;28;19999;-69
2023/12/19 03:08:30;;;;;;;;;;;;;;;10.51;39.04;99202.84;5094020;28;19939;-69
2023/12/19 03:10:56;;;;;;;;;;;;;;;10.42;39.03;99207.72;5093700;28;19998;-69
2023/12/19 03:13:21;;;;;;;;;;;;;;;10.50;39.24;99203.91;5093593;28;19927;-69
2023/12/19 03:15:46;;;;;;;;;;;;;;;10.47;37.87;99205.16;5093516;28;19912;-69
2023/12/19 03:18:12;;;;;;;;;;;;;;;10.37;37.81;99210.25;5093822;28;19912;-69
2023/12/19 03:20:37;;;;;;;;;;;;;;;10.53;38.20;99215.03;5093635;28;19913;-69
2023/12/19 03:23:02;;;;;;;;;;;;;;;10.46;37.67;99225.81;5093380;28;20434;-69
2023/12/19 03:25:28;;;;;;;;;;;;;;;10.50;36.68;99230.75;5075498;28;19962;-69
2023/12/19 03:27:53;;;;;;;;;;;;;;;10.49;36.87;99226.41;5093449;28;19912;-69
2023/12/19 03:30:18;;;;;;;;;;;;;;;10.49;37.68;99224.53;5093670;28;19912;-69
2023/12/19 03:32:44;;;;;;;;;;;;;;;10.55;36.83;99220.97;5093673;28;19947;-69
2023/12/19 03:35:10;;;;;;;;;;;;;;;10.61;36.95;99222.75;5093412;28;19912;-69
2023/12/19 03:37:36;;;;;;;;;;;;;;;10.62;36.68;99223.56;5093288;28;19954;-69
2023/12/19 03:40:02;;;;;;;;;;;;;;;10.66;37.92;99240.91;5093659;28;19912;-69
2023/12/19 03:42:27;;;;;;;;;;;;;;;10.64;36.46;99238.44;5093173;28;19977;-69
2023/12/19 03:44:53;;;;;;;;;;;;;;;10.63;37.18;99241.34;5094868;28;19923;-69
2023/12/19 03:47:18;;;;;;;;;;;;;;;10.57;36.51;99261.84;5097416;28;19959;-69
2023/12/19 03:49:43;;;;;;;;;;;;;;;10.51;36.00;99268.13;5079620;28;19919;-69
2023/12/19 03:52:09;;;;;;;;;;;;;;;10.54;37.03;99262.28;5105458;28;19919;-69
2023/12/19 03:54:34;;;;;;;;;;;;;;;10.49;35.73;99254.06;5117144;28;19919;-69
2023/12/19 03:56:59;;;;;;;;;;;;;;;10.46;36.01;99258.03;5106976;28;19912;-69
2023/12/19 03:59:24;;;;;;;;;;;;;;;10.52;36.57;99264.38;5097435;28;20306;-69
2023/12/19 04:01:51;;;;;;;;;;;;;;;10.51;36.06;99268.13;5080764;28;20258;-69
2023/12/19 04:04:17;;;;;;;;;;;;;;;10.50;35.75;99279.06;5097171;28;20607;-69
2023/12/19 04:06:43;;;;;;;;;;;;;;;10.62;37.61;99288.00;5097288;28;19912;-69
2023/12/19 04:09:09;;;;;;;;;;;;;;;10.56;35.60;99291.59;5079202;28;19970;-69
2023/12/19 04:11:34;;;;;;;;;;;;;;;10.55;35.97;99298.84;5096811;28;19948;-69
2023/12/19 04:13:59;;;;;;;;;;;;;;;10.60;36.07;99298.97;5096971;28;19916;-69
2023/12/19 04:16:25;;;;;;;;;;;;;;;10.60;36.95;99301.66;5097184;28;19914;-69
2023/12/19 04:18:50;;;;;;;;;;;;;;;10.62;36.61;99302.28;5096998;28;20434;-69
2023/12/19 04:21:15;;;;;;;;;;;;;;;10.63;35.81;99303.09;5108381;28;20131;-69
2023/12/19 04:23:41;;;;;;;;;;;;;;;10.60;36.40;99309.69;5117174;28;20309;-69
2023/12/19 04:26:06;;;;;;;;;;;;;;;10.54;35.98;99305.22;5117181;28;20356;-69
2023/12/19 04:28:31;;;;;;;;;;;;;;;10.51;35.73;99307.53;5117235;28;19912;-69
2023/12/19 04:30:56;;;;;;;;;;;;;;;10.48;35.47;99306.13;5116716;28;19920;-69
2023/12/19 04:33:22;;;;;;;;;;;;;;;10.45;35.92;99306.56;5098681;28;19912;-69
2023/12/19 04:35:47;;;;;;;;;;;;;;;10.42;35.77;99313.19;5117209;28;19918;-69
2023/12/19 04:38:12;;;;;;;;;;;;;;;10.45;34.88;99307.38;5116862;28;19918;-69
2023/12/19 04:40:38;;;;;;;;;;;;;;;10.46;35.66;99300.16;5109515;28;19912;-69
2023/12/19 04:43:03;;;;;;;;;;;;;;;10.42;35.02;99294.41;5109105;28;20448;-69
2023/12/19 04:45:28;;;;;;;;;;;;;;;10.42;35.66;99294.41;5096206;28;19923;-69
2023/12/19 04:47:53;;;;;;;;;;;;;;;10.35;35.96;99288.28;5096304;28;20312;-69
2023/12/19 04:50:19;;;;;;;;;;;;;;;10.35;35.71;99292.84;5103202;28;19916;-69
2023/12/19 04:52:44;;;;;;;;;;;;;;;10.35;34.74;99292.84;5078105;28;19920;-69
2023/12/19 04:55:09;;;;;;;;;;;;;;;10.39;35.78;99315.50;5095638;28;20066;-69
2023/12/19 04:57:35;;;;;;;;;;;;;;;10.42;35.23;99312.38;5095025;28;20613;-69
2023/12/19 05:00:00;;;;;;;;;;;;;;;10.44;35.50;99319.16;5096610;28;20381;-69
2023/12/19 05:02:25;;;;;;;;;;;;;;;10.41;35.53;99318.78;5096371;28;19916;-69
2023/12/19 05:04:51;;;;;;;;;;;;;;;10.38;35.72;99322.75;5078005;28;19916;-69
2023/12/19 05:07:16;;;;;;;;;;;;;;;10.40;35.45;99328.72;5077800;28;19916;-69
2023/12/19 05:09:42;;;;;;;;;;;;;;;10.33;34.31;99317.22;5096368;28;20368;-69
2023/12/19 05:12:07;;;;;;;;;;;;;;;10.33;35.76;99327.94;5095753;28;19927;-69
2023/12/19 05:14:32;;;;;;;;;;;;;;;10.33;36.37;99335.19;5095919;28;19966;-69
2023/12/19 05:16:59;;;;;;;;;;;;;;;10.20;35.12;99323.47;5095790;28;19962;-69
2023/12/19 05:19:25;;;;;;;;;;;;;;;10.23;35.44;99332.94;5095655;28;20249;-69
2023/12/19 05:21:51;;;;;;;;;;;;;;;10.26;36.45;99333.31;5111975;28;19918;-69
2023/12/19 05:24:17;;;;;;;;;;;;;;;10.25;35.59;99342.44;5116244;28;20309;-69
2023/12/19 05:26:43;;;;;;;;;;;;;;;10.23;35.24;99352.56;5116065;28;20072;-69
2023/12/19 05:29:08;;;;;;;;;;;;;;;10.24;35.47;99348.81;5116285;28;19947;-69
2023/12/19 05:31:33;;;;;;;;;;;;;;;10.24;35.88;99351.50;5115617;28;19912;-69
2023/12/19 05:33:59;;;;;;;;;;;;;;;10.23;35.79;99355.25;5115908;28;20269;-69
2023/12/19 05:36:24;;;;;;;;;;;;;;;10.20;35.87;99361.03;5112133;28;20448;-69
2023/12/19 05:38:49;;;;;;;;;;;;;;;10.15;35.54;99352.81;5095252;28;19919;-69
2023/12/19 05:41:16;;;;;;;;;;;;;;;10.12;35.76;99353.25;5095226;28;19912;-69
2023/12/19 05:43:41;;;;;;;;;;;;;;;10.11;35.77;99353.50;5076887;28;19961;-69
2023/12/19 05:46:07;;;;;;;;;;;;;;;10.04;36.20;99348.97;5099643;28;19966;-69
2023/12/19 05:48:33;;;;;;;;;;;;;;;10.02;36.23;99343.00;5115506;28;19951;-69
2023/12/19 05:50:59;;;;;;;;;;;;;;;10.04;36.22;99345.47;5108261;28;19919;-69
2023/12/19 05:53:25;;;;;;;;;;;;;;;10.03;35.89;99341.97;5095267;28;20249;-69
2023/12/19 05:55:51;;;;;;;;;;;;;;;10.09;36.06;99337.59;5094273;28;19919;-69
2023/12/19 05:58:16;;;;;;;;;;;;;;;10.08;36.27;99344.00;5094918;28;19916;-69
2023/12/19 06:00:44;;;;;;;;;;;;;;;10.02;36.91;99337.63;5094889;28;20430;-69
2023/12/19 06:03:10;;;;;;;;;;;;;;;9.95;36.09;99333.38;5094491;28;20262;-69
2023/12/19 06:05:38;;;;;;;;;;;;;;;9.95;36.28;99331.50;5094611;28;19920;-69
2023/12/19 06:08:04;;;;;;;;;;;;;;;9.96;36.41;99330.47;5094619;28;19916;-69
2023/12/19 06:10:29;;;;;;;;;;;;;;;10.02;36.74;99336.84;5077017;28;19916;-69
2023/12/19 06:12:56;;;;;;;;;;;;;;;10.04;36.79;99342.78;5094417;28;20416;-69
2023/12/19 06:15:21;;;;;;;;;;;;;;;10.03;36.88;99341.16;5094537;28;19912;-69
2023/12/19 06:17:47;;;;;;;;;;;;;;;10.00;36.96;99344.28;5094575;28;19912;-68
2023/12/19 06:20:12;;;;;;;;;;;;;;;9.94;36.04;99340.59;5096946;28;19966;-69
2023/12/19 06:22:38;;;;;;;;;;;;;;;9.95;37.06;99350.28;5114518;28;19918;-68
2023/12/19 06:25:04;;;;;;;;;;;;;;;9.84;36.25;99351.81;5114706;28;19980;-69
2023/12/19 06:27:29;;;;;;;;;;;;;;;9.78;35.11;99351.84;5114904;28;19919;-68
2023/12/19 06:29:55;;;;;;;;;;;;;;;9.85;35.29;99353.44;5114989;28;19988;-69
2023/12/19 06:32:20;;;;;;;;;;;;;;;9.89;35.84;99360.00;5078549;28;20268;-70
2023/12/19 06:34:46;;;;;;;;;;;;;;;9.88;37.03;99362.94;5095572;28;20013;-69
2023/12/19 06:37:11;;;;;;;;;;;;;;;9.87;35.21;99361.28;5097805;28;19999;-69
2023/12/19 06:39:36;;;;;;;;;;;;;;;9.90;35.53;99347.44;5076018;28;19982;-69
2023/12/19 06:42:02;;;;;;;;;;;;;;;9.90;35.84;99358.19;5095594;28;20340;-69
2023/12/19 06:44:27;;;;;;;;;;;;;;;9.83;34.92;99352.03;5114681;28;19977;-69
2023/12/19 06:46:53;;;;;;;;;;;;;;;9.84;35.25;99349.13;5114695;28;19912;-69
2023/12/19 06:49:19;;;;;;;;;;;;;;;9.86;35.64;99355.09;5114317;28;19915;-69
2023/12/19 06:51:44;;;;;;;;;;;;;;;9.86;36.31;99348.91;5100647;28;20007;-69
2023/12/19 06:54:10;;;;;;;;;;;;;;;9.93;36.46;99359.59;5093320;28;20010;-69
2023/12/19 06:56:35;;;;;;;;;;;;;;;9.89;36.35;99353.84;5093828;28;19916;-69
2023/12/19 06:59:01;;;;;;;;;;;;;;;9.89;36.16;99353.84;5093795;28;19919;-69
2023/12/19 07:01:27;;;;;;;;;;;;;;;9.91;35.00;99356.31;5091596;28;19956;-69
2023/12/19 07:03:52;;;;;;;;;;;;;;;9.95;35.79;99357.50;5073335;28;19920;-69
2023/12/19 07:06:18;;;;;;;;;;;;;;;9.95;35.21;99369.03;5073452;28;19913;-69
2023/12/19 07:08:43;;;;;;;;;;;;;;;9.93;34.99;99373.00;5073941;28;19912;-69
2023/12/19 07:11:09;;;;;;;;;;;;;;;9.80;35.41;99376.59;5073419;28;20288;-69
2023/12/19 07:13:34;;;;;;;;;;;;;;;9.90;34.62;99371.59;5112587;28;20364;-69
2023/12/19 07:16:01;;;;;;;;;;;;;;;9.93;34.69;99381.03;5093706;28;20455;-69
2023/12/19 07:18:26;;;;;;;;;;;;;;;9.83;34.44;99373.47;5093783;28;20365;-69
2023/12/19 07:20:51;;;;;;;;;;;;;;;9.79;34.58;99388.34;5100925;28;19912;-69
2023/12/19 07:23:17;;;;;;;;;;;;;;;9.78;34.33;99386.69;5113926;28;19965;-69
2023/12/19 07:25:42;;;;;;;;;;;;;;;9.69;34.38;99386.13;5113813;28;19970;-69
2023/12/19 07:28:07;;;;;;;;;;;;;;;9.71;34.63;99386.72;5113800;28;19912;-69
2023/12/19 07:30:33;;;;;;;;;;;;;;;9.73;35.24;99392.69;5096584;28;19970;-70
2023/12/19 07:33:01;;;;;;;;;;;;;;;9.80;34.93;99398.03;5093430;28;20015;-70
2023/12/19 07:35:26;;;;;;;;;;;;;;;9.79;34.72;99402.56;5100345;28;19932;-69
2023/12/19 07:37:51;;;;;;;;;;;;;;;9.79;35.48;99394.53;5099603;28;19934;-69
2023/12/19 07:40:17;;;;;;;;;;;;;;;9.82;35.46;99396.78;5093057;28;20280;-69
2023/12/19 07:42:44;;;;;;;;;;;;;;;9.77;34.68;99398.44;5093412;28;19912;-69
2023/12/19 07:45:10;;;;;;;;;;;;;;;9.75;36.36;99387.97;5099234;28;19928;-69
2023/12/19 07:47:35;;;;;;;;;;;;;;;9.79;35.80;99393.72;5102763;28;19915;-70
2023/12/19 07:50:00;;;;;;;;;;;;;;;9.81;36.08;99389.78;5085599;28;20688;-70
2023/12/19 07:52:27;;;;;;;;;;;;;;;9.75;36.73;99390.66;5107774;28;19915;-70
2023/12/19 07:54:54;;;;;;;;;;;;;;;9.69;36.27;99386.97;5103440;28;19912;-70
2023/12/19 07:57:19;;;;;;;;;;;;;;;9.67;36.89;99388.19;5093539;28;19912;-69
2023/12/19 07:59:46;;;;;;;;;;;;;;;9.62;36.28;99386.19;5075240;28;19927;-68
2023/12/19 08:02:11;;;;;;;;;;;;;;;9.65;36.78;99392.94;5093191;28;20373;-68
2023/12/19 08:04:37;;;;;;;;;;;;;;;9.65;36.44;99399.13;5075237;28;19931;-68
2023/12/19 08:07:03;;;;;;;;;;;;;;;9.64;36.49;99399.38;5093531;28;19995;-69
2023/12/19 08:09:29;;;;;;;;;;;;;;;9.60;36.78;99398.13;5091818;28;20434;-69
2023/12/19 08:11:56;;;;;;;;;;;;;;;9.56;36.87;99391.56;5091723;28;19920;-69
2023/12/19 08:14:22;;;;;;;;;;;;;;;9.55;36.81;99401.47;5073921;28;20272;-69
2023/12/19 08:16:47;;;;;;;;;;;;;;;9.60;37.10;99400.81;5092075;28;20014;-70
2023/12/19 08:19:14;;;;;;;;;;;;;;;9.50;37.68;99396.72;5092611;28;19912;-70
2023/12/19 08:21:54;;;;;;;;;;;;;;;9.51;37.40;99389.53;5107107;28;19919;-70
2023/12/19 08:24:19;;;;;;;;;;;;;;;9.49;36.65;99396.97;5113471;28;19916;-70
2023/12/19 08:26:45;;;;;;;;;;;;;;;9.53;36.57;99391.97;5096607;28;19919;-69
2023/12/19 08:29:10;;;;;;;;;;;;;;;9.49;36.88;99395.09;5092825;28;19911;-70
2023/12/19 08:31:36;;;;;;;;;;;;;;;9.38;36.38;99400.28;5095054;28;19973;-69
2023/12/19 08:34:03;;;;;;;;;;;;;;;9.38;37.47;99401.13;5096580;28;19958;-69
2023/12/19 08:36:29;;;;;;;;;;;;;;;9.45;36.89;99396.56;5099014;28;19916;-69
2023/12/19 08:38:54;;;;;;;;;;;;;;;9.39;37.67;99400.06;5096630;28;19912;-70
2023/12/19 08:41:20;;;;;;;;;;;;;;;9.45;36.90;99401.06;5096229;28;20385;-70
2023/12/19 08:43:45;;;;;;;;;;;;;;;9.55;36.97;99404.16;5096250;28;20253;-70
2023/12/19 08:46:10;;;;;;;;;;;;;;;9.63;37.48;99390.47;5096460;28;19942;-70
2023/12/19 08:48:36;;;;;;;;;;;;;;;9.65;36.95;99393.78;5078435;28;19978;-70
2023/12/19 08:51:02;;;;;;;;;;;;;;;9.60;37.42;99393.63;5096328;28;19958;-69
2023/12/19 08:53:28;;;;;;;;;;;;;;;9.60;37.46;99388.25;5099607;28;19918;-69
2023/12/19 08:55:53;;;;;;;;;;;;;;;9.71;37.44;99394.78;5095405;28;20026;-69
2023/12/19 08:58:19;;;;;;;;;;;;;;;9.82;37.24;99390.59;5077914;28;19916;-69
2023/12/19 09:00:44;;;;;;;;;;;;;;;9.93;36.72;99383.72;5077943;28;19912;-69
2023/12/19 09:03:11;;;;;;;;;;;;;;;10.02;37.07;99390.47;5073472;28;19912;-69
2023/12/19 09:05:36;;;;;;;;;;;;;;;10.08;35.82;99390.44;5095737;28;19920;-69
2023/12/19 09:08:02;;;;;;;;;;;;;;;10.13;35.78;99391.66;5096000;28;19991;-69
2023/12/19 09:10:29;;;;;;;;;;;;;;;10.10;35.71;99389.38;5077993;28;19912;-69
2023/12/19 09:12:54;;;;;;;;;;;;;;;10.22;36.07;99387.66;5095250;28;19920;-69
2023/12/19 09:15:20;;;;;;;;;;;;;;;10.26;35.52;99387.00;5095523;28;19944;-69
2023/12/19 09:17:46;;;;;;;;;;;;;;;10.36;36.15;99385.72;5095689;28;19912;-69
2023/12/19 09:20:11;;;;;;;;;;;;;;;10.36;36.51;99383.84;5097658;28;20415;-69
2023/12/19 09:22:37;;;;;;;;;;;;;;;10.37;36.04;99390.06;5102417;28;20418;-70
2023/12/19 09:25:02;;;;;;;;;;;;;;;10.44;36.07;99388.97;5095353;28;20406;-70
2023/12/19 09:27:28;;;;;;;;;;;;;;;10.49;35.56;99385.59;5077671;28;19920;-70
2023/12/19 09:29:53;;;;;;;;;;;;;;;10.57;36.24;99379.16;5095408;28;19912;-70
2023/12/19 09:32:19;;;;;;;;;;;;;;;10.48;36.33;99392.03;5077108;28;19920;-70
2023/12/19 09:34:44;;;;;;;;;;;;;;;10.60;35.57;99398.31;5095344;28;19916;-69
2023/12/19 09:37:10;;;;;;;;;;;;;;;10.60;35.55;99395.63;5077276;28;19912;-70
2023/12/19 09:39:35;;;;;;;;;;;;;;;10.72;35.02;99393.03;5095780;28;19954;-70
2023/12/19 09:42:01;;;;;;;;;;;;;;;10.75;35.29;99394.47;5101366;28;20269;-70
2023/12/19 09:44:27;;;;;;;;;;;;;;;10.83;35.73;99391.50;5115391;28;19966;-70
2023/12/19 09:46:53;;;;;;;;;;;;;;;10.91;36.15;99390.38;5097348;28;19951;-70
2023/12/19 09:49:21;;;;;;;;;;;;;;;10.99;35.73;99387.41;5103631;28;19950;-70
2023/12/19 09:51:49;;;;;;;;;;;;;;;10.97;35.01;99393.00;5094853;28;19920;-70
2023/12/19 09:54:14;;;;;;;;;;;;;;;10.87;36.22;99376.59;5098524;28;19976;-70
2023/12/19 09:56:40;;;;;;;;;;;;;;;10.73;35.63;99375.88;5107335;28;20319;-70
2023/12/19 09:59:07;;;;;;;;;;;;;;;10.74;36.35;99368.66;5094780;28;20383;-70
2023/12/19 10:01:33;;;;;;;;;;;;;;;10.78;35.38;99362.63;5094255;28;20010;-70
2023/12/19 10:03:58;;;;;;;;;;;;;;;10.84;35.50;99366.28;5094908;28;20006;-70
2023/12/19 10:06:24;;;;;;;;;;;;;;;10.84;34.50;99368.97;5094733;28;19934;-70
2023/12/19 10:08:50;;;;;;;;;;;;;;;10.85;35.36;99376.81;5094708;28;20426;-70
2023/12/19 10:11:21;;;;;;;;;;;;;;;10.89;35.62;99371.00;5095011;28;20296;-70
2023/12/19 10:13:47;;;;;;;;;;;;;;;10.99;35.98;99365.91;5094854;28;20023;-70
2023/12/19 10:16:13;;;;;;;;;;;;;;;11.04;35.86;99366.06;5076477;28;19947;-70
2023/12/19 10:18:39;;;;;;;;;;;;;;;11.06;36.46;99374.72;5094404;28;20452;-69
2023/12/19 10:21:10;;;;;;;;;;;;;;;11.03;36.32;99378.69;5094349;28;19913;-69
2023/12/19 10:23:38;;;;;;;;;;;;;;;11.06;36.27;99380.09;5094695;28;19912;-69
2023/12/19 10:26:04;;;;;;;;;;;;;;;11.04;36.88;99374.13;5094033;28;19951;-69
2023/12/19 10:28:30;;;;;;;;;;;;;;;11.02;36.67;99366.28;5108623;28;19947;-69
2023/12/19 10:31:15;;;;;;;;;;;;;;;11.01;37.07;99358.44;5114969;28;19923;-69
2023/12/19 10:33:49;;;;;;;;;;;;;;;10.92;34.31;99357.09;5073708;28;19912;-69
2023/12/19 10:36:29;;;;;;;;;;;;;;;10.95;35.55;99362.84;5101443;28;19980;-69
2023/12/19 10:38:55;;;;;;;;;;;;;;;10.93;35.94;99358.75;5114699;28;19911;-69
2023/12/19 10:41:24;;;;;;;;;;;;;;;10.94;35.92;99361.22;5114509;28;19912;-69
2023/12/19 10:43:53;;;;;;;;;;;;;;;10.94;35.94;99363.06;5114793;28;19912;-69
2023/12/19 10:46:19;;;;;;;;;;;;;;;10.54;35.44;99291.81;5096758;28;19916;-70
2023/12/19 10:48:45;;;;;;;;;;;;;;;10.92;35.61;99349.03;5076308;28;19912;-70
2023/12/19 10:51:11;;;;;;;;;;;;;;;10.88;36.73;99350.53;5103528;28;19912;-70
2023/12/19 10:53:37;;;;;;;;;;;;;;;10.80;36.54;99352.47;5114453;28;19916;-69
2023/12/19 10:56:07;;;;;;;;;;;;;;;10.78;36.32;99340.31;5119849;28;19954;-69
2023/12/19 10:58:35;;;;;;;;;;;;;;;10.76;36.03;99337.84;5127264;28;20011;-70
2023/12/19 11:01:04;;;;;;;;;;;;;;;10.76;35.88;99331.66;5086170;28;19976;-69
2023/12/19 11:03:33;;;;;;;;;;;;;;;10.73;36.43;99337.47;5096596;28;19912;-69
2023/12/19 11:06:02;;;;;;;;;;;;;;;10.68;36.40;99332.78;5094616;28;19916;-69
2023/12/19 11:08:28;;;;;;;;;;;;;;;10.66;37.04;99326.81;5093990;28;19919;-69
2023/12/19 11:11:09;;;;;;;;;;;;;;;10.55;35.58;99331.03;5075757;28;20256;-69
2023/12/19 11:13:35;;;;;;;;;;;;;;;10.59;37.09;99321.50;5093594;28;19924;-69
2023/12/19 11:16:03;;;;;;;;;;;;;;;10.59;36.75;99326.88;5093861;28;20029;-69
2023/12/19 11:18:40;;;;;;;;;;;;;;;9.82;37.45;99203.72;5093685;28;19919;-69
2023/12/19 11:21:09;;;;;;;;;;;;;;;10.60;37.64;99311.56;5093903;28;19924;-69
2023/12/19 11:23:50;;;;;;;;;;;;;;;10.58;37.62;99301.06;5113824;28;19926;-70
2023/12/19 11:26:38;;;;;;;;;;;;;;;10.57;37.92;99301.31;5114633;28;19998;-70
2023/12/19 11:29:04;;;;;;;;;;;;;;;10.53;38.26;99303.59;5113916;28;19998;-69
2023/12/19 11:31:30;;;;;;;;;;;;;;;10.50;37.65;99300.53;5114038;28;19954;-69
2023/12/19 11:33:57;;;;;;;;;;;;;;;10.48;37.53;99303.44;5113973;28;20354;-70
2023/12/19 11:36:22;;;;;;;;;;;;;;;10.46;38.00;99303.66;5098629;28;20339;-70
2023/12/19 11:38:49;;;;;;;;;;;;;;;10.42;37.74;99290.91;5093378;28;19912;-70
2023/12/19 11:41:33;;;;;;;;;;;;;;;10.40;38.02;99295.66;5092977;28;20262;-69
2023/12/19 11:44:00;;;;;;;;;;;;;;;10.38;37.63;99281.66;5093408;28;19951;-69
2023/12/19 11:46:26;;;;;;;;;;;;;;;10.37;37.91;99283.53;5093284;28;19917;-70
2023/12/19 11:48:52;;;;;;;;;;;;;;;10.35;37.49;99282.09;5093222;28;19912;-70
2023/12/19 11:51:36;;;;;;;;;;;;;;;10.33;37.94;99276.97;5093218;28;19916;-69
2023/12/19 11:54:01;;;;;;;;;;;;;;;10.34;38.19;99267.03;5094842;28;19959;-69
2023/12/19 11:56:26;;;;;;;;;;;;;;;10.35;37.88;99271.38;5107348;28;19920;-69
2023/12/19 11:58:52;;;;;;;;;;;;;;;10.31;38.21;99275.50;5093128;28;19916;-69
2023/12/19 12:01:21;;;;;;;;;;;;;;;10.26;37.67;99266.25;5093208;28;19958;-69
2023/12/19 12:03:49;;;;;;;;;;;;;;;10.24;37.33;99262.97;5074933;28;19912;-68
2023/12/19 12:06:17;;;;;;;;;;;;;;;10.20;38.03;99267.13;5095014;28;19973;-69
2023/12/19 12:08:51;;;;;;;;;;;;;;;10.20;37.34;99259.09;5096912;28;19916;-69
2023/12/19 12:11:17;;;;;;;;;;;;;;;10.20;37.19;99251.03;5097724;28;19981;-69
2023/12/19 12:13:42;;;;;;;;;;;;;;;10.23;37.78;99253.28;5109048;28;20385;-69
2023/12/19 12:16:07;;;;;;;;;;;;;;;10.26;37.50;99258.19;5079296;28;20253;-69
2023/12/19 12:18:32;;;;;;;;;;;;;;;10.23;37.01;99253.28;5096964;28;20246;-69
2023/12/19 12:21:08;;;;;;;;;;;;;;;10.24;37.05;99254.91;5110658;28;19916;-69
2023/12/19 12:23:33;;;;;;;;;;;;;;;10.26;37.46;99242.09;5117377;28;20310;-68
2023/12/19 12:25:59;;;;;;;;;;;;;;;10.30;37.37;99250.53;5117112;28;19922;-68
2023/12/19 12:28:26;;;;;;;;;;;;;;;10.28;37.48;99248.06;5117047;28;19918;-69
2023/12/19 12:30:57;;;;;;;;;;;;;;;10.29;37.61;99246.22;5117013;28;20466;-68
2023/12/19 12:33:27;;;;;;;;;;;;;;;10.34;37.11;99238.31;5116958;28;19919;-68
2023/12/19 12:35:53;;;;;;;;;;;;;;;10.37;37.42;99242.44;5116636;28;20002;-68
2023/12/19 12:38:19;;;;;;;;;;;;;;;10.39;37.43;99240.34;5103096;28;19912;-69
2023/12/19 12:40:54;;;;;;;;;;;;;;;10.38;37.79;99238.72;5078511;28;19912;-69
2023/12/19 12:43:28;;;;;;;;;;;;;;;10.35;37.79;99237.31;5096086;28;19912;-69